sensor_id;sensor_type;location;lat;lon;timestamp;pressure;altitude;pressure_sealevel;temperature;humidity
35129;BME280;21301;43.626;10.580;2024-03-06T00:00:06;101290.94;;;11.68;100.00
35129;BME280;21301;43.626;10.580;2024-03-06T00:02:34;101303.19;;;11.56;100.00
35129;BME280;21301;43.626;10.580;2024-03-06T00:05:01;101299.06;;;11.65;100.00
35129;BME280;21301;43.626;10.580;2024-03-06T00:07:26;101292.63;;;11.69;100.00
35129;BME280;21301;43.626;10.580;2024-03-06T00:09:52;101293.06;;;11.63;100.00
35129;BME280;21301;43.626;10.580;2024-03-06T00:12:18;101297.81;;;11.58;100.00
35129;BME280;21301;43.626;10.580;2024-03-06T00:14:44;101293.78;;;11.65;100.00
35129;BME280;21301;43.626;10.580;2024-03-06T00:17:09;101288.53;;;11.65;100.00
35129;BME280;21301;43.626;10.580;2024-03-06T00:19:35;101283.25;;;11.65;100.00
35129;BME280;21301;43.626;10.580;2024-03-06T00:22:01;101280.31;;;11.57;100.00
35129;BME280;21301;43.626;10.580;2024-03-06T00:24:28;101278.53;;;11.57;100.00
35129;BME280;21301;43.626;10.580;2024-03-06T00:26:53;101302.44;;;11.54;100.00
35129;BME280;21301;43.626;10.580;2024-03-06T00:29:19;101296.03;;;11.45;100.00
35129;BME280;21301;43.626;10.580;2024-03-06T00:31:46;101305.19;;;11.52;100.00
35129;BME280;21301;43.626;10.580;2024-03-06T00:34:13;101307.19;;;11.62;100.00
35129;BME280;21301;43.626;10.580;2024-03-06T00:36:45;101311.06;;;11.56;100.00
35129;BME280;21301;43.626;10.580;2024-03-06T00:39:11;101312.13;;;11.54;100.00
35129;BME280;21301;43.626;10.580;2024-03-06T00:41:41;101310.28;;;11.43;100.00
35129;BME280;21301;43.626;10.580;2024-03-06T00:44:08;101310.38;;;11.41;100.00
35129;BME280;21301;43.626;10.580;2024-03-06T00:46:33;101301.19;;;11.47;100.00
35129;BME280;21301;43.626;10.580;2024-03-06T00:48:59;101299.34;;;11.23;100.00
35129;BME280;21301;43.626;10.580;2024-03-06T00:51:26;101295.31;;;11.43;100.00
35129;BME280;21301;43.626;10.580;2024-03-06T00:53:53;101292.47;;;11.34;100.00
35129;BME280;21301;43.626;10.580;2024-03-06T00:56:19;101291.72;;;11.44;100.00
35129;BME280;21301;43.626;10.580;2024-03-06T00:58:44;101300.47;;;11.32;100.00
35129;BME280;21301;43.626;10.580;2024-03-06T01:01:10;101303.75;;;11.36;100.00
35129;BME280;21301;43.626;10.580;2024-03-06T01:03:37;101302.50;;;11.28;100.00
35129;BME280;21301;43.626;10.580;2024-03-06T01:06:03;101298.38;;;11.24;100.00
35129;BME280;21301;43.626;10.580;2024-03-06T01:08:30;101296.81;;;11.22;100.00
35129;BME280;21301;43.626;10.580;2024-03-06T01:10:57;101290.91;;;11.31;100.00
35129;BME280;21301;43.626;10.580;2024-03-06T01:13:25;101308.59;;;11.29;100.00
35129;BME280;21301;43.626;10.580;2024-03-06T01:15:50;101309.66;;;11.26;100.00
35129;BME280;21301;43.626;10.580;2024-03-06T01:18:16;101301.63;;;11.28;100.00
35129;BME280;21301;43.626;10.580;2024-03-06T01:20:41;101302.28;;;11.32;100.00
35129;BME280;21301;43.626;10.580;2024-03-06T01:23:07;101298.88;;;11.42;100.00
35129;BME280;21301;43.626;10.580;2024-03-06T01:25:32;101296.59;;;11.38;100.00
35129;BME280;21301;43.626;10.580;2024-03-06T01:27:58;101302.50;;;11.28;100.00
35129;BME280;21301;43.626;10.580;2024-03-06T01:30:23;101293.75;;;11.15;100.00
35129;BME280;21301;43.626;10.580;2024-03-06T01:32:50;101301.88;;;11.12;100.00
35129;BME280;21301;43.626;10.580;2024-03-06T01:35:16;101300.06;;;11.25;100.00
35129;BME280;21301;43.626;10.580;2024-03-06T01:37:43;101298.19;;;11.15;100.00
35129;BME280;21301;43.626;10.580;2024-03-06T01:40:09;101294.78;;;11.25;100.00
35129;BME280;21301;43.626;10.580;2024-03-06T01:42:35;101289.25;;;11.04;100.00
35129;BME280;21301;43.626;10.580;2024-03-06T01:45:02;101300.81;;;11.15;100.00
35129;BME280;21301;43.626;10.580;2024-03-06T01:47:28;101301.34;;;11.07;100.00
35129;BME280;21301;43.626;10.580;2024-03-06T01:49:54;101297.22;;;11.16;100.00
35129;BME280;21301;43.626;10.580;2024-03-06T01:52:21;101296.81;;;11.09;100.00
35129;BME280;21301;43.626;10.580;2024-03-06T01:54:49;101292.91;;;11.15;100.00
35129;BME280;21301;43.626;10.580;2024-03-06T01:57:17;101280.38;;;11.18;100.00
35129;BME280;21301;43.626;10.580;2024-03-06T01:59:43;101294.09;;;10.98;100.00
35129;BME280;21301;43.626;10.580;2024-03-06T02:02:10;101293.44;;;10.94;100.00
35129;BME280;21301;43.626;10.580;2024-03-06T02:04:39;101292.28;;;10.98;100.00
35129;BME280;21301;43.626;10.580;2024-03-06T02:07:09;101306.81;;;11.04;100.00
35129;BME280;21301;43.626;10.580;2024-03-06T02:09:38;101300.69;;;11.03;100.00
35129;BME280;21301;43.626;10.580;2024-03-06T02:12:06;101299.03;;;10.90;100.00
35129;BME280;21301;43.626;10.580;2024-03-06T02:14:34;101291.31;;;10.86;100.00
35129;BME280;21301;43.626;10.580;2024-03-06T02:17:00;101290.81;;;10.94;100.00
35129;BME280;21301;43.626;10.580;2024-03-06T02:19:40;101279.25;;;10.97;100.00
35129;BME280;21301;43.626;10.580;2024-03-06T02:22:07;101290.81;;;10.94;100.00
35129;BME280;21301;43.626;10.580;2024-03-06T02:24:35;101292.41;;;10.97;100.00
35129;BME280;21301;43.626;10.580;2024-03-06T02:27:01;101290.81;;;10.94;100.00
35129;BME280;21301;43.626;10.580;2024-03-06T02:29:27;101298.81;;;11.05;100.00
35129;BME280;21301;43.626;10.580;2024-03-06T02:31:52;101290.81;;;10.94;100.00
35129;BME280;21301;43.626;10.580;2024-03-06T02:34:18;101301.03;;;10.86;100.00
35129;BME280;21301;43.626;10.580;2024-03-06T02:36:43;101303.13;;;10.94;100.00
35129;BME280;21301;43.626;10.580;2024-03-06T02:39:09;101305.97;;;11.03;100.00
35129;BME280;21301;43.626;10.580;2024-03-06T02:41:35;101302.59;;;11.01;100.00
35129;BME280;21301;43.626;10.580;2024-03-06T02:44:01;101311.88;;;11.07;100.00
35129;BME280;21301;43.626;10.580;2024-03-06T02:46:28;101305.66;;;11.08;100.00
35129;BME280;21301;43.626;10.580;2024-03-06T02:48:53;101305.34;;;11.13;100.00
35129;BME280;21301;43.626;10.580;2024-03-06T02:51:20;101308.41;;;11.06;100.00
35129;BME280;21301;43.626;10.580;2024-03-06T02:53:46;101309.75;;;11.12;100.00
35129;BME280;21301;43.626;10.580;2024-03-06T02:56:18;101311.66;;;11.10;100.00
35129;BME280;21301;43.626;10.580;2024-03-06T02:58:44;101309.66;;;11.14;100.00
35129;BME280;21301;43.626;10.580;2024-03-06T03:01:10;101312.91;;;10.92;100.00
35129;BME280;21301;43.626;10.580;2024-03-06T03:03:35;101317.41;;;10.77;100.00
35129;BME280;21301;43.626;10.580;2024-03-06T03:06:02;101299.44;;;10.71;100.00
35129;BME280;21301;43.626;10.580;2024-03-06T03:08:28;101300.38;;;10.70;100.00
35129;BME280;21301;43.626;10.580;2024-03-06T03:10:55;101302.16;;;10.56;100.00
35129;BME280;21301;43.626;10.580;2024-03-06T03:13:20;101297.72;;;10.44;100.00
35129;BME280;21301;43.626;10.580;2024-03-06T03:15:47;101304.25;;;10.51;100.00
35129;BME280;21301;43.626;10.580;2024-03-06T03:18:13;101297.94;;;10.54;100.00
35129;BME280;21301;43.626;10.580;2024-03-06T03:20:39;101296.75;;;10.58;100.00
35129;BME280;21301;43.626;10.580;2024-03-06T03:23:04;101291.00;;;10.65;100.00
35129;BME280;21301;43.626;10.580;2024-03-06T03:25:31;101293.50;;;10.54;100.00
35129;BME280;21301;43.626;10.580;2024-03-06T03:27:58;101284.97;;;10.51;100.00
35129;BME280;21301;43.626;10.580;2024-03-06T03:30:24;101278.88;;;10.50;100.00
35129;BME280;21301;43.626;10.580;2024-03-06T03:32:49;101282.56;;;10.48;100.00
35129;BME280;21301;43.626;10.580;2024-03-06T03:35:15;101280.75;;;10.48;100.00
35129;BME280;21301;43.626;10.580;2024-03-06T03:37:42;101279.69;;;10.38;100.00
35129;BME280;21301;43.626;10.580;2024-03-06T03:40:09;101273.19;;;10.43;100.00
35129;BME280;21301;43.626;10.580;2024-03-06T03:42:38;101265.41;;;10.42;100.00
35129;BME280;21301;43.626;10.580;2024-03-06T03:45:04;101268.13;;;10.40;100.00
35129;BME280;21301;43.626;10.580;2024-03-06T03:47:30;101272.94;;;10.34;100.00
35129;BME280;21301;43.626;10.580;2024-03-06T03:49:55;101274.38;;;10.25;100.00
35129;BME280;21301;43.626;10.580;2024-03-06T03:52:21;101268.13;;;10.13;100.00
35129;BME280;21301;43.626;10.580;2024-03-06T03:54:47;101264.03;;;10.22;100.00
35129;BME280;21301;43.626;10.580;2024-03-06T03:57:13;101266.66;;;10.09;100.00
35129;BME280;21301;43.626;10.580;2024-03-06T03:59:39;101268.72;;;10.04;100.00
35129;BME280;21301;43.626;10.580;2024-03-06T04:02:19;101261.06;;;10.01;100.00
35129;BME280;21301;43.626;10.580;2024-03-06T04:04:44;101253.94;;;10.03;100.00
35129;BME280;21301;43.626;10.580;2024-03-06T04:07:10;101248.44;;;9.93;100.00
35129;BME280;21301;43.626;10.580;2024-03-06T04:09:36;101257.91;;;9.96;100.00
35129;BME280;21301;43.626;10.580;2024-03-06T04:12:02;101255.56;;;9.91;100.00
35129;BME280;21301;43.626;10.580;2024-03-06T04:14:29;101254.06;;;9.87;100.00
35129;BME280;21301;43.626;10.580;2024-03-06T04:16:55;101254.31;;;9.97;100.00
35129;BME280;21301;43.626;10.580;2024-03-06T04:19:21;101270.94;;;9.83;100.00
35129;BME280;21301;43.626;10.580;2024-03-06T04:21:47;101274.06;;;9.75;100.00
35129;BME280;21301;43.626;10.580;2024-03-06T04:24:14;101283.41;;;9.94;100.00
35129;BME280;21301;43.626;10.580;2024-03-06T04:26:40;101288.28;;;10.27;100.00
35129;BME280;21301;43.626;10.580;2024-03-06T04:29:06;101279.06;;;10.34;100.00
35129;BME280;21301;43.626;10.580;2024-03-06T04:31:34;101272.16;;;10.59;100.00
35129;BME280;21301;43.626;10.580;2024-03-06T04:34:00;101272.59;;;10.78;100.00
35129;BME280;21301;43.626;10.580;2024-03-06T04:36:28;101271.75;;;10.91;100.00
35129;BME280;21301;43.626;10.580;2024-03-06T04:38:53;101285.28;;;10.46;100.00
35129;BME280;21301;43.626;10.580;2024-03-06T04:41:19;101280.31;;;10.14;100.00
35129;BME280;21301;43.626;10.580;2024-03-06T04:43:45;101286.88;;;10.49;100.00
35129;BME280;21301;43.626;10.580;2024-03-06T04:46:13;101278.13;;;10.48;100.00
35129;BME280;21301;43.626;10.580;2024-03-06T04:48:40;101278.66;;;10.40;100.00
35129;BME280;21301;43.626;10.580;2024-03-06T04:51:06;101285.03;;;10.36;100.00
35129;BME280;21301;43.626;10.580;2024-03-06T04:53:31;101285.56;;;10.29;100.00
35129;BME280;21301;43.626;10.580;2024-03-06T04:55:57;101292.72;;;10.12;100.00
35129;BME280;21301;43.626;10.580;2024-03-06T04:58:22;101284.84;;;10.12;100.00
35129;BME280;21301;43.626;10.580;2024-03-06T05:00:48;101291.88;;;9.43;100.00
35129;BME280;21301;43.626;10.580;2024-03-06T05:03:14;101299.78;;;8.84;100.00
35129;BME280;21301;43.626;10.580;2024-03-06T05:05:40;101288.94;;;8.90;100.00
35129;BME280;21301;43.626;10.580;2024-03-06T05:08:06;101289.25;;;9.00;100.00
35129;BME280;21301;43.626;10.580;2024-03-06T05:10:32;101305.47;;;9.07;100.00
35129;BME280;21301;43.626;10.580;2024-03-06T05:12:58;101289.69;;;9.21;100.00
35129;BME280;21301;43.626;10.580;2024-03-06T05:15:23;101275.38;;;9.27;100.00
35129;BME280;21301;43.626;10.580;2024-03-06T05:17:49;101268.13;;;9.30;100.00
35129;BME280;21301;43.626;10.580;2024-03-06T05:20:14;101272.63;;;9.28;100.00
35129;BME280;21301;43.626;10.580;2024-03-06T05:22:40;101285.03;;;9.26;100.00
35129;BME280;21301;43.626;10.580;2024-03-06T05:25:05;101289.81;;;9.34;100.00
35129;BME280;21301;43.626;10.580;2024-03-06T05:27:31;101279.88;;;9.25;100.00
35129;BME280;21301;43.626;10.580;2024-03-06T05:29:57;101266.75;;;9.25;100.00
35129;BME280;21301;43.626;10.580;2024-03-06T05:32:23;101242.00;;;9.29;100.00
35129;BME280;21301;43.626;10.580;2024-03-06T05:34:49;101240.50;;;9.25;100.00
35129;BME280;21301;43.626;10.580;2024-03-06T05:37:14;101248.28;;;9.41;100.00
35129;BME280;21301;43.626;10.580;2024-03-06T05:39:40;101262.50;;;9.51;100.00
35129;BME280;21301;43.626;10.580;2024-03-06T05:42:07;101263.72;;;9.45;100.00
35129;BME280;21301;43.626;10.580;2024-03-06T05:44:33;101270.66;;;9.46;100.00
35129;BME280;21301;43.626;10.580;2024-03-06T05:47:00;101272.00;;;9.39;100.00
35129;BME280;21301;43.626;10.580;2024-03-06T05:49:27;101276.75;;;9.47;100.00
35129;BME280;21301;43.626;10.580;2024-03-06T05:51:53;101266.63;;;9.55;100.00
35129;BME280;21301;43.626;10.580;2024-03-06T05:54:23;101279.84;;;9.53;100.00
35129;BME280;21301;43.626;10.580;2024-03-06T05:56:49;101285.19;;;9.52;100.00
35129;BME280;21301;43.626;10.580;2024-03-06T05:59:15;101285.09;;;9.53;100.00
35129;BME280;21301;43.626;10.580;2024-03-06T06:01:43;101295.13;;;9.47;100.00
35129;BME280;21301;43.626;10.580;2024-03-06T06:04:10;101312.47;;;9.49;100.00
35129;BME280;21301;43.626;10.580;2024-03-06T06:06:36;101320.25;;;9.51;100.00
35129;BME280;21301;43.626;10.580;2024-03-06T06:09:02;101327.94;;;9.54;100.00
35129;BME280;21301;43.626;10.580;2024-03-06T06:11:32;101328.41;;;9.60;100.00
35129;BME280;21301;43.626;10.580;2024-03-06T06:13:58;101326.34;;;9.66;100.00
35129;BME280;21301;43.626;10.580;2024-03-06T06:16:24;101330.28;;;9.73;100.00
35129;BME280;21301;43.626;10.580;2024-03-06T06:18:50;101331.03;;;10.02;100.00
35129;BME280;21301;43.626;10.580;2024-03-06T06:21:15;101338.56;;;10.08;100.00
35129;BME280;21301;43.626;10.580;2024-03-06T06:23:41;101340.75;;;9.87;100.00
35129;BME280;21301;43.626;10.580;2024-03-06T06:26:09;101357.91;;;9.78;100.00
35129;BME280;21301;43.626;10.580;2024-03-06T06:28:36;101358.81;;;9.65;100.00
35129;BME280;21301;43.626;10.580;2024-03-06T06:31:03;101366.56;;;9.37;100.00
35129;BME280;21301;43.626;10.580;2024-03-06T06:33:29;101354.47;;;9.35;100.00
35129;BME280;21301;43.626;10.580;2024-03-06T06:35:55;101382.84;;;9.28;100.00
35129;BME280;21301;43.626;10.580;2024-03-06T06:38:21;101381.66;;;9.20;100.00
35129;BME280;21301;43.626;10.580;2024-03-06T06:40:47;101398.22;;;9.20;100.00
35129;BME280;21301;43.626;10.580;2024-03-06T06:43:13;101405.69;;;8.98;100.00
35129;BME280;21301;43.626;10.580;2024-03-06T06:45:39;101421.63;;;8.79;100.00
35129;BME280;21301;43.626;10.580;2024-03-06T06:48:05;101412.56;;;8.54;100.00
35129;BME280;21301;43.626;10.580;2024-03-06T06:50:31;101382.13;;;8.82;100.00
35129;BME280;21301;43.626;10.580;2024-03-06T06:52:59;101396.03;;;8.98;100.00
35129;BME280;21301;43.626;10.580;2024-03-06T06:55:24;101397.72;;;8.99;100.00
35129;BME280;21301;43.626;10.580;2024-03-06T06:57:50;101397.38;;;9.05;100.00
35129;BME280;21301;43.626;10.580;2024-03-06T07:00:16;101390.75;;;9.14;100.00
35129;BME280;21301;43.626;10.580;2024-03-06T07:02:44;101394.81;;;9.04;100.00
35129;BME280;21301;43.626;10.580;2024-03-06T07:05:10;101391.00;;;9.09;100.00
35129;BME280;21301;43.626;10.580;2024-03-06T07:07:36;101385.22;;;9.47;100.00
35129;BME280;21301;43.626;10.580;2024-03-06T07:10:05;101378.00;;;9.79;100.00
35129;BME280;21301;43.626;10.580;2024-03-06T07:12:31;101375.84;;;10.28;100.00
35129;BME280;21301;43.626;10.580;2024-03-06T07:14:57;101368.69;;;11.61;100.00
35129;BME280;21301;43.626;10.580;2024-03-06T07:17:24;101366.38;;;12.19;100.00
35129;BME280;21301;43.626;10.580;2024-03-06T07:19:50;101362.66;;;11.97;100.00
35129;BME280;21301;43.626;10.580;2024-03-06T07:22:17;101368.09;;;11.32;100.00
35129;BME280;21301;43.626;10.580;2024-03-06T07:24:43;101371.97;;;11.00;100.00
35129;BME280;21301;43.626;10.580;2024-03-06T07:27:09;101354.69;;;11.60;100.00
35129;BME280;21301;43.626;10.580;2024-03-06T07:29:35;101351.22;;;12.09;100.00
35129;BME280;21301;43.626;10.580;2024-03-06T07:32:01;101355.88;;;12.54;100.00
35129;BME280;21301;43.626;10.580;2024-03-06T07:34:27;101358.19;;;12.10;100.00
35129;BME280;21301;43.626;10.580;2024-03-06T07:36:53;101353.09;;;12.44;100.00
35129;BME280;21301;43.626;10.580;2024-03-06T07:39:21;101339.97;;;13.02;100.00
35129;BME280;21301;43.626;10.580;2024-03-06T07:41:47;101342.97;;;13.20;100.00
35129;BME280;21301;43.626;10.580;2024-03-06T07:44:13;101348.66;;;13.72;100.00
35129;BME280;21301;43.626;10.580;2024-03-06T07:46:39;101369.06;;;12.54;100.00
35129;BME280;21301;43.626;10.580;2024-03-06T07:49:05;101365.88;;;12.38;100.00
35129;BME280;21301;43.626;10.580;2024-03-06T07:51:31;101381.00;;;11.73;100.00
35129;BME280;21301;43.626;10.580;2024-03-06T07:53:57;101382.31;;;11.42;100.00
35129;BME280;21301;43.626;10.580;2024-03-06T07:56:26;101380.81;;;11.76;100.00
35129;BME280;21301;43.626;10.580;2024-03-06T07:58:52;101377.34;;;11.88;100.00
35129;BME280;21301;43.626;10.580;2024-03-06T08:01:23;101384.09;;;12.17;100.00
35129;BME280;21301;43.626;10.580;2024-03-06T08:03:49;101387.00;;;10.85;100.00
35129;BME280;21301;43.626;10.580;2024-03-06T08:06:15;101390.16;;;10.51;100.00
35129;BME280;21301;43.626;10.580;2024-03-06T08:08:44;101386.19;;;11.11;100.00
35129;BME280;21301;43.626;10.580;2024-03-06T08:11:10;101381.97;;;11.59;100.00
35129;BME280;21301;43.626;10.580;2024-03-06T08:13:37;101373.56;;;12.17;100.00
35129;BME280;21301;43.626;10.580;2024-03-06T08:16:04;101364.66;;;13.01;100.00
35129;BME280;21301;43.626;10.580;2024-03-06T08:18:30;101362.28;;;14.11;100.00
35129;BME280;21301;43.626;10.580;2024-03-06T08:20:59;101361.56;;;14.63;100.00
35129;BME280;21301;43.626;10.580;2024-03-06T08:23:25;101367.38;;;15.51;100.00
35129;BME280;21301;43.626;10.580;2024-03-06T08:25:51;101377.06;;;15.92;100.00
35129;BME280;21301;43.626;10.580;2024-03-06T08:28:18;101376.34;;;15.90;100.00
35129;BME280;21301;43.626;10.580;2024-03-06T08:30:43;101380.72;;;16.21;100.00
35129;BME280;21301;43.626;10.580;2024-03-06T08:33:12;101381.31;;;16.34;100.00
35129;BME280;21301;43.626;10.580;2024-03-06T08:35:38;101376.56;;;16.28;100.00
35129;BME280;21301;43.626;10.580;2024-03-06T08:38:03;101381.13;;;14.93;100.00
35129;BME280;21301;43.626;10.580;2024-03-06T08:40:29;101382.00;;;14.94;100.00
35129;BME280;21301;43.626;10.580;2024-03-06T08:42:55;101378.59;;;14.70;100.00
35129;BME280;21301;43.626;10.580;2024-03-06T08:45:21;101373.75;;;14.43;100.00
35129;BME280;21301;43.626;10.580;2024-03-06T08:47:49;101381.44;;;14.03;100.00
35129;BME280;21301;43.626;10.580;2024-03-06T08:50:15;101386.19;;;13.19;100.00
35129;BME280;21301;43.626;10.580;2024-03-06T08:52:40;101385.56;;;12.21;100.00
35129;BME280;21301;43.626;10.580;2024-03-06T08:55:07;101388.91;;;11.99;100.00
35129;BME280;21301;43.626;10.580;2024-03-06T08:57:36;101379.75;;;11.79;100.00
35129;BME280;21301;43.626;10.580;2024-03-06T09:00:06;101375.75;;;11.73;100.00
35129;BME280;21301;43.626;10.580;2024-03-06T09:02:40;101376.88;;;11.94;100.00
35129;BME280;21301;43.626;10.580;2024-03-06T09:05:08;101378.50;;;12.45;100.00
35129;BME280;21301;43.626;10.580;2024-03-06T09:07:39;101384.56;;;13.40;100.00
35129;BME280;21301;43.626;10.580;2024-03-06T09:10:08;101367.69;;;14.20;100.00
35129;BME280;21301;43.626;10.580;2024-03-06T09:12:35;101370.72;;;14.48;100.00
35129;BME280;21301;43.626;10.580;2024-03-06T09:15:01;101368.81;;;15.34;100.00
35129;BME280;21301;43.626;10.580;2024-03-06T09:17:27;101366.41;;;15.21;100.00
35129;BME280;21301;43.626;10.580;2024-03-06T09:19:53;101367.44;;;14.88;100.00
35129;BME280;21301;43.626;10.580;2024-03-06T09:22:19;101366.06;;;15.66;100.00
35129;BME280;21301;43.626;10.580;2024-03-06T09:24:45;101364.53;;;14.91;100.00
35129;BME280;21301;43.626;10.580;2024-03-06T09:27:10;101358.91;;;14.52;100.00
35129;BME280;21301;43.626;10.580;2024-03-06T09:29:36;101362.97;;;15.30;100.00
35129;BME280;21301;43.626;10.580;2024-03-06T09:32:02;101367.44;;;14.88;100.00
35129;BME280;21301;43.626;10.580;2024-03-06T09:34:27;101376.16;;;14.46;100.00
35129;BME280;21301;43.626;10.580;2024-03-06T09:36:53;101379.47;;;14.60;100.00
35129;BME280;21301;43.626;10.580;2024-03-06T09:39:19;101375.00;;;15.13;100.00
35129;BME280;21301;43.626;10.580;2024-03-06T09:41:53;101370.63;;;14.82;100.00
35129;BME280;21301;43.626;10.580;2024-03-06T09:44:20;101383.44;;;14.22;100.00
35129;BME280;21301;43.626;10.580;2024-03-06T09:46:48;101393.13;;;14.76;100.00
35129;BME280;21301;43.626;10.580;2024-03-06T09:49:15;101387.03;;;15.18;100.00
35129;BME280;21301;43.626;10.580;2024-03-06T09:51:47;101376.66;;;15.36;100.00
35129;BME280;21301;43.626;10.580;2024-03-06T09:54:19;101378.94;;;15.71;100.00
35129;BME280;21301;43.626;10.580;2024-03-06T09:56:48;101382.09;;;15.95;100.00
35129;BME280;21301;43.626;10.580;2024-03-06T09:59:15;101383.50;;;15.69;100.00
35129;BME280;21301;43.626;10.580;2024-03-06T10:01:53;101384.41;;;15.79;100.00
35129;BME280;21301;43.626;10.580;2024-03-06T10:04:26;101366.91;;;17.04;100.00
35129;BME280;21301;43.626;10.580;2024-03-06T10:06:52;101378.38;;;17.24;100.00
35129;BME280;21301;43.626;10.580;2024-03-06T10:09:21;101383.81;;;15.45;100.00
35129;BME280;21301;43.626;10.580;2024-03-06T10:11:46;101375.97;;;15.12;100.00
35129;BME280;21301;43.626;10.580;2024-03-06T10:14:14;101373.84;;;15.27;100.00
35129;BME280;21301;43.626;10.580;2024-03-06T10:16:59;101365.38;;;14.91;100.00
35129;BME280;21301;43.626;10.580;2024-03-06T10:19:27;101380.34;;;14.05;100.00
35129;BME280;21301;43.626;10.580;2024-03-06T10:21:53;101376.25;;;14.45;100.00
35129;BME280;21301;43.626;10.580;2024-03-06T10:26:46;101391.19;;;13.69;100.00
35129;BME280;21301;43.626;10.580;2024-03-06T10:29:16;101395.59;;;14.13;100.00
35129;BME280;21301;43.626;10.580;2024-03-06T10:31:48;101383.91;;;14.16;100.00
35129;BME280;21301;43.626;10.580;2024-03-06T10:34:13;101385.63;;;14.49;100.00
35129;BME280;21301;43.626;10.580;2024-03-06T10:36:39;101385.66;;;13.83;100.00
35129;BME280;21301;43.626;10.580;2024-03-06T10:39:07;101385.13;;;14.12;100.00
35129;BME280;21301;43.626;10.580;2024-03-06T10:41:38;101379.50;;;13.94;100.00
35129;BME280;21301;43.626;10.580;2024-03-06T10:44:10;101379.34;;;14.29;100.00
35129;BME280;21301;43.626;10.580;2024-03-06T10:46:41;101382.44;;;14.99;100.00
35129;BME280;21301;43.626;10.580;2024-03-06T10:49:09;101382.91;;;14.72;100.00
35129;BME280;21301;43.626;10.580;2024-03-06T10:51:39;101375.38;;;14.88;100.00
35129;BME280;21301;43.626;10.580;2024-03-06T10:54:08;101366.50;;;14.89;100.00
35129;BME280;21301;43.626;10.580;2024-03-06T10:56:35;101366.28;;;14.05;100.00
35129;BME280;21301;43.626;10.580;2024-03-06T10:59:02;101368.31;;;14.45;100.00
35129;BME280;21301;43.626;10.580;2024-03-06T11:01:29;101369.75;;;15.23;100.00
35129;BME280;21301;43.626;10.580;2024-03-06T11:04:00;101366.44;;;15.31;100.00
35129;BME280;21301;43.626;10.580;2024-03-06T11:06:28;101366.25;;;15.74;100.00
35129;BME280;21301;43.626;10.580;2024-03-06T11:08:54;101361.66;;;15.55;100.00
35129;BME280;21301;43.626;10.580;2024-03-06T11:11:23;101350.63;;;15.20;100.00
35129;BME280;21301;43.626;10.580;2024-03-06T11:13:53;101362.09;;;14.46;100.00
35129;BME280;21301;43.626;10.580;2024-03-06T11:16:27;101359.94;;;13.51;100.00
35129;BME280;21301;43.626;10.580;2024-03-06T11:19:04;101357.78;;;13.68;100.00
35129;BME280;21301;43.626;10.580;2024-03-06T11:21:31;101366.25;;;14.16;100.00
35129;BME280;21301;43.626;10.580;2024-03-06T11:24:17;101359.22;;;14.38;100.00
35129;BME280;21301;43.626;10.580;2024-03-06T11:26:49;101354.81;;;14.27;100.00
35129;BME280;21301;43.626;10.580;2024-03-06T11:29:16;101357.28;;;14.93;100.00
35129;BME280;21301;43.626;10.580;2024-03-06T11:32:06;101350.59;;;14.68;100.00
35129;BME280;21301;43.626;10.580;2024-03-06T11:34:34;101349.91;;;14.11;100.00
35129;BME280;21301;43.626;10.580;2024-03-06T11:37:03;101346.06;;;14.80;100.00
35129;BME280;21301;43.626;10.580;2024-03-06T11:39:35;101346.53;;;14.85;100.00
35129;BME280;21301;43.626;10.580;2024-03-06T11:42:02;101338.25;;;14.46;100.00
35129;BME280;21301;43.626;10.580;2024-03-06T11:44:31;101343.31;;;14.17;100.00
35129;BME280;21301;43.626;10.580;2024-03-06T11:47:07;101352.34;;;14.35;100.00
35129;BME280;21301;43.626;10.580;2024-03-06T11:49:34;101337.16;;;14.81;100.00
35129;BME280;21301;43.626;10.580;2024-03-06T11:52:06;101333.97;;;15.08;100.00
35129;BME280;21301;43.626;10.580;2024-03-06T11:54:34;101329.41;;;14.68;100.00
35129;BME280;21301;43.626;10.580;2024-03-06T11:57:02;101333.88;;;14.67;100.00
35129;BME280;21301;43.626;10.580;2024-03-06T11:59:29;101321.53;;;14.45;100.00
35129;BME280;21301;43.626;10.580;2024-03-06T12:01:57;101320.19;;;14.62;100.00
35129;BME280;21301;43.626;10.580;2024-03-06T12:04:24;101319.28;;;13.97;100.00
35129;BME280;21301;43.626;10.580;2024-03-06T12:06:51;101320.28;;;13.85;100.00
35129;BME280;21301;43.626;10.580;2024-03-06T12:09:17;101319.97;;;13.56;100.00
35129;BME280;21301;43.626;10.580;2024-03-06T12:11:44;101326.69;;;13.60;100.00
35129;BME280;21301;43.626;10.580;2024-03-06T12:14:18;101316.03;;;14.05;100.00
35129;BME280;21301;43.626;10.580;2024-03-06T12:16:56;101323.16;;;14.37;100.00
35129;BME280;21301;43.626;10.580;2024-03-06T12:19:26;101326.69;;;13.71;100.00
35129;BME280;21301;43.626;10.580;2024-03-06T12:21:52;101321.44;;;14.03;100.00
35129;BME280;21301;43.626;10.580;2024-03-06T12:24:19;101312.53;;;14.04;100.00
35129;BME280;21301;43.626;10.580;2024-03-06T12:26:45;101300.56;;;14.65;100.00
35129;BME280;21301;43.626;10.580;2024-03-06T12:29:17;101317.22;;;14.12;100.00
35129;BME280;21301;43.626;10.580;2024-03-06T12:31:46;101310.78;;;13.82;100.00
35129;BME280;21301;43.626;10.580;2024-03-06T12:34:15;101318.53;;;14.06;100.00